sensor_id;sensor_type;location;lat;lon;timestamp;P1;durP1;ratioP1;P2;durP2;ratioP2
13269;SDS011;6703;51.994;7.570;2022-11-20T00:01:15;22.27;;;9.50;;
13269;SDS011;6703;51.994;7.570;2022-11-20T00:03:45;25.08;;;10.00;;
13269;SDS011;6703;51.994;7.570;2022-11-20T00:06:15;23.02;;;10.18;;
13269;SDS011;6703;51.994;7.570;2022-11-20T00:08:44;23.00;;;9.68;;
13269;SDS011;6703;51.994;7.570;2022-11-20T00:11:13;26.73;;;10.02;;
13269;SDS011;6703;51.994;7.570;2022-11-20T00:13:43;22.55;;;9.20;;
13269;SDS011;6703;51.994;7.570;2022-11-20T00:16:13;20.63;;;8.90;;
13269;SDS011;6703;51.994;7.570;2022-11-20T00:18:41;24.13;;;9.00;;
13269;SDS011;6703;51.994;7.570;2022-11-20T00:21:11;24.05;;;9.90;;
13269;SDS011;6703;51.994;7.570;2022-11-20T00:23:40;22.93;;;9.57;;
13269;SDS011;6703;51.994;7.570;2022-11-20T00:26:09;24.92;;;10.50;;
13269;SDS011;6703;51.994;7.570;2022-11-20T00:28:37;24.52;;;9.15;;
13269;SDS011;6703;51.994;7.570;2022-11-20T00:31:07;25.50;;;9.95;;
13269;SDS011;6703;51.994;7.570;2022-11-20T00:33:35;26.87;;;10.13;;
13269;SDS011;6703;51.994;7.570;2022-11-20T00:36:03;28.42;;;10.43;;
13269;SDS011;6703;51.994;7.570;2022-11-20T00:38:33;23.57;;;9.77;;
13269;SDS011;6703;51.994;7.570;2022-11-20T00:41:03;24.85;;;10.35;;
13269;SDS011;6703;51.994;7.570;2022-11-20T00:43:32;28.42;;;10.52;;
13269;SDS011;6703;51.994;7.570;2022-11-20T00:46:00;24.15;;;10.63;;
13269;SDS011;6703;51.994;7.570;2022-11-20T00:48:31;24.60;;;10.02;;
13269;SDS011;6703;51.994;7.570;2022-11-20T00:50:59;26.25;;;10.00;;
13269;SDS011;6703;51.994;7.570;2022-11-20T00:53:27;26.83;;;10.15;;
13269;SDS011;6703;51.994;7.570;2022-11-20T00:55:55;26.27;;;11.35;;
13269;SDS011;6703;51.994;7.570;2022-11-20T00:58:24;32.20;;;11.20;;
13269;SDS011;6703;51.994;7.570;2022-11-20T01:00:53;23.10;;;9.75;;
13269;SDS011;6703;51.994;7.570;2022-11-20T01:03:27;28.33;;;11.32;;
13269;SDS011;6703;51.994;7.570;2022-11-20T01:05:56;26.83;;;10.80;;
13269;SDS011;6703;51.994;7.570;2022-11-20T01:08:28;25.23;;;10.02;;
13269;SDS011;6703;51.994;7.570;2022-11-20T01:11:00;28.75;;;11.10;;
13269;SDS011;6703;51.994;7.570;2022-11-20T01:13:29;26.00;;;10.57;;
13269;SDS011;6703;51.994;7.570;2022-11-20T01:16:06;28.20;;;10.55;;
13269;SDS011;6703;51.994;7.570;2022-11-20T01:18:35;27.45;;;10.70;;
13269;SDS011;6703;51.994;7.570;2022-11-20T01:21:06;26.90;;;10.02;;
13269;SDS011;6703;51.994;7.570;2022-11-20T01:23:37;28.38;;;10.65;;
13269;SDS011;6703;51.994;7.570;2022-11-20T01:26:07;26.63;;;11.02;;
13269;SDS011;6703;51.994;7.570;2022-11-20T01:28:35;27.33;;;10.23;;
13269;SDS011;6703;51.994;7.570;2022-11-20T01:31:10;26.00;;;10.20;;
13269;SDS011;6703;51.994;7.570;2022-11-20T01:33:39;26.00;;;10.40;;
13269;SDS011;6703;51.994;7.570;2022-11-20T01:36:09;26.25;;;10.65;;
13269;SDS011;6703;51.994;7.570;2022-11-20T01:38:37;26.50;;;10.43;;
13269;SDS011;6703;51.994;7.570;2022-11-20T01:41:06;28.40;;;10.65;;
13269;SDS011;6703;51.994;7.570;2022-11-20T01:43:34;29.00;;;11.13;;
13269;SDS011;6703;51.994;7.570;2022-11-20T01:46:03;23.80;;;10.30;;
13269;SDS011;6703;51.994;7.570;2022-11-20T01:48:35;27.17;;;11.60;;
13269;SDS011;6703;51.994;7.570;2022-11-20T01:51:06;25.80;;;11.05;;
13269;SDS011;6703;51.994;7.570;2022-11-20T01:53:41;30.30;;;11.43;;
13269;SDS011;6703;51.994;7.570;2022-11-20T01:56:09;29.15;;;11.38;;
13269;SDS011;6703;51.994;7.570;2022-11-20T01:58:40;30.48;;;11.50;;
13269;SDS011;6703;51.994;7.570;2022-11-20T02:01:10;30.65;;;11.80;;
13269;SDS011;6703;51.994;7.570;2022-11-20T02:03:38;30.83;;;11.55;;
13269;SDS011;6703;51.994;7.570;2022-11-20T02:06:08;32.30;;;11.90;;
13269;SDS011;6703;51.994;7.570;2022-11-20T02:08:42;30.83;;;12.30;;
13269;SDS011;6703;51.994;7.570;2022-11-20T02:11:09;31.40;;;12.00;;
13269;SDS011;6703;51.994;7.570;2022-11-20T02:13:38;27.60;;;11.20;;
13269;SDS011;6703;51.994;7.570;2022-11-20T02:16:17;26.70;;;10.93;;
13269;SDS011;6703;51.994;7.570;2022-11-20T02:18:47;28.83;;;11.80;;
13269;SDS011;6703;51.994;7.570;2022-11-20T02:21:20;30.58;;;11.25;;
13269;SDS011;6703;51.994;7.570;2022-11-20T02:24:01;30.93;;;12.23;;
13269;SDS011;6703;51.994;7.570;2022-11-20T02:26:32;29.33;;;11.95;;
13269;SDS011;6703;51.994;7.570;2022-11-20T02:29:02;29.17;;;12.20;;
13269;SDS011;6703;51.994;7.570;2022-11-20T02:31:35;26.85;;;11.25;;
13269;SDS011;6703;51.994;7.570;2022-11-20T02:34:04;29.48;;;11.77;;
13269;SDS011;6703;51.994;7.570;2022-11-20T02:36:31;32.28;;;12.77;;
13269;SDS011;6703;51.994;7.570;2022-11-20T02:39:03;30.33;;;12.10;;
13269;SDS011;6703;51.994;7.570;2022-11-20T02:41:32;28.60;;;11.00;;
13269;SDS011;6703;51.994;7.570;2022-11-20T02:44:00;29.67;;;11.75;;
13269;SDS011;6703;51.994;7.570;2022-11-20T02:46:28;27.13;;;11.30;;
13269;SDS011;6703;51.994;7.570;2022-11-20T02:48:56;28.80;;;12.80;;
13269;SDS011;6703;51.994;7.570;2022-11-20T02:51:25;27.33;;;11.50;;
13269;SDS011;6703;51.994;7.570;2022-11-20T02:53:52;28.45;;;10.48;;
13269;SDS011;6703;51.994;7.570;2022-11-20T02:56:21;33.35;;;11.32;;
13269;SDS011;6703;51.994;7.570;2022-11-20T02:58:49;33.65;;;11.65;;
13269;SDS011;6703;51.994;7.570;2022-11-20T03:01:17;28.88;;;11.15;;
13269;SDS011;6703;51.994;7.570;2022-11-20T03:03:45;28.45;;;11.98;;
13269;SDS011;6703;51.994;7.570;2022-11-20T03:06:14;28.48;;;11.27;;
13269;SDS011;6703;51.994;7.570;2022-11-20T03:08:42;27.35;;;11.65;;
13269;SDS011;6703;51.994;7.570;2022-11-20T03:11:10;27.65;;;10.93;;
13269;SDS011;6703;51.994;7.570;2022-11-20T03:13:39;29.75;;;11.45;;
13269;SDS011;6703;51.994;7.570;2022-11-20T03:16:08;28.38;;;11.80;;
13269;SDS011;6703;51.994;7.570;2022-11-20T03:18:37;28.00;;;11.23;;
13269;SDS011;6703;51.994;7.570;2022-11-20T03:21:05;26.55;;;11.10;;
13269;SDS011;6703;51.994;7.570;2022-11-20T03:23:35;27.60;;;11.05;;
13269;SDS011;6703;51.994;7.570;2022-11-20T03:26:07;27.92;;;11.05;;
13269;SDS011;6703;51.994;7.570;2022-11-20T03:28:35;27.40;;;11.03;;
13269;SDS011;6703;51.994;7.570;2022-11-20T03:31:06;26.38;;;10.57;;
13269;SDS011;6703;51.994;7.570;2022-11-20T03:33:38;25.77;;;10.70;;
13269;SDS011;6703;51.994;7.570;2022-11-20T03:36:06;26.83;;;10.60;;
13269;SDS011;6703;51.994;7.570;2022-11-20T03:38:35;27.08;;;11.23;;
13269;SDS011;6703;51.994;7.570;2022-11-20T03:41:04;29.23;;;10.25;;
13269;SDS011;6703;51.994;7.570;2022-11-20T03:43:34;25.67;;;9.80;;
13269;SDS011;6703;51.994;7.570;2022-11-20T03:46:02;26.60;;;10.90;;
13269;SDS011;6703;51.994;7.570;2022-11-20T03:48:33;27.67;;;10.20;;
13269;SDS011;6703;51.994;7.570;2022-11-20T03:51:07;25.02;;;10.77;;
13269;SDS011;6703;51.994;7.570;2022-11-20T03:53:35;26.80;;;10.65;;
13269;SDS011;6703;51.994;7.570;2022-11-20T03:56:03;26.17;;;9.87;;
13269;SDS011;6703;51.994;7.570;2022-11-20T03:58:33;26.67;;;10.77;;
13269;SDS011;6703;51.994;7.570;2022-11-20T04:01:05;25.70;;;10.30;;
13269;SDS011;6703;51.994;7.570;2022-11-20T04:03:35;26.77;;;10.77;;
13269;SDS011;6703;51.994;7.570;2022-11-20T04:06:05;25.85;;;10.65;;
13269;SDS011;6703;51.994;7.570;2022-11-20T04:08:33;24.20;;;9.63;;
13269;SDS011;6703;51.994;7.570;2022-11-20T04:11:07;29.02;;;11.02;;
13269;SDS011;6703;51.994;7.570;2022-11-20T04:13:36;26.17;;;10.55;;
13269;SDS011;6703;51.994;7.570;2022-11-20T04:16:04;32.37;;;11.03;;
13269;SDS011;6703;51.994;7.570;2022-11-20T04:18:33;25.88;;;11.15;;
13269;SDS011;6703;51.994;7.570;2022-11-20T04:21:02;25.80;;;9.65;;
13269;SDS011;6703;51.994;7.570;2022-11-20T04:23:32;26.90;;;10.77;;
13269;SDS011;6703;51.994;7.570;2022-11-20T04:26:03;25.45;;;10.80;;
13269;SDS011;6703;51.994;7.570;2022-11-20T04:28:31;24.55;;;10.27;;
13269;SDS011;6703;51.994;7.570;2022-11-20T04:31:02;25.75;;;10.10;;
13269;SDS011;6703;51.994;7.570;2022-11-20T04:33:31;27.95;;;10.40;;
13269;SDS011;6703;51.994;7.570;2022-11-20T04:36:00;27.00;;;10.77;;
13269;SDS011;6703;51.994;7.570;2022-11-20T04:38:31;26.98;;;11.05;;
13269;SDS011;6703;51.994;7.570;2022-11-20T04:40:59;25.98;;;10.57;;
13269;SDS011;6703;51.994;7.570;2022-11-20T04:43:27;35.00;;;11.88;;
13269;SDS011;6703;51.994;7.570;2022-11-20T04:45:56;31.58;;;11.07;;
13269;SDS011;6703;51.994;7.570;2022-11-20T04:48:25;28.02;;;10.07;;
13269;SDS011;6703;51.994;7.570;2022-11-20T04:50:53;29.13;;;11.20;;
13269;SDS011;6703;51.994;7.570;2022-11-20T04:53:22;31.35;;;11.63;;
13269;SDS011;6703;51.994;7.570;2022-11-20T04:55:51;25.27;;;11.30;;
13269;SDS011;6703;51.994;7.570;2022-11-20T04:58:19;25.65;;;10.75;;
13269;SDS011;6703;51.994;7.570;2022-11-20T05:00:47;27.43;;;10.80;;
13269;SDS011;6703;51.994;7.570;2022-11-20T05:03:17;30.20;;;10.88;;
13269;SDS011;6703;51.994;7.570;2022-11-20T05:05:46;26.03;;;10.97;;
13269;SDS011;6703;51.994;7.570;2022-11-20T05:08:13;32.30;;;11.40;;
13269;SDS011;6703;51.994;7.570;2022-11-20T05:10:42;30.17;;;12.13;;
13269;SDS011;6703;51.994;7.570;2022-11-20T05:13:10;29.15;;;11.45;;
13269;SDS011;6703;51.994;7.570;2022-11-20T05:15:38;29.33;;;11.65;;
13269;SDS011;6703;51.994;7.570;2022-11-20T05:18:05;28.57;;;11.47;;
13269;SDS011;6703;51.994;7.570;2022-11-20T05:20:33;26.45;;;10.77;;
13269;SDS011;6703;51.994;7.570;2022-11-20T05:23:02;28.80;;;11.23;;
13269;SDS011;6703;51.994;7.570;2022-11-20T05:25:30;27.70;;;10.85;;
13269;SDS011;6703;51.994;7.570;2022-11-20T05:28:00;25.97;;;10.10;;
13269;SDS011;6703;51.994;7.570;2022-11-20T05:30:28;27.83;;;11.00;;
13269;SDS011;6703;51.994;7.570;2022-11-20T05:32:56;25.40;;;11.32;;
13269;SDS011;6703;51.994;7.570;2022-11-20T05:35:23;27.23;;;10.80;;
13269;SDS011;6703;51.994;7.570;2022-11-20T05:37:51;24.05;;;10.90;;
13269;SDS011;6703;51.994;7.570;2022-11-20T05:40:19;28.38;;;11.98;;
13269;SDS011;6703;51.994;7.570;2022-11-20T05:42:47;29.23;;;11.60;;
13269;SDS011;6703;51.994;7.570;2022-11-20T05:45:16;34.13;;;12.03;;
13269;SDS011;6703;51.994;7.570;2022-11-20T05:47:43;28.20;;;11.43;;
13269;SDS011;6703;51.994;7.570;2022-11-20T05:50:12;29.52;;;10.82;;
13269;SDS011;6703;51.994;7.570;2022-11-20T05:52:40;28.75;;;12.05;;
13269;SDS011;6703;51.994;7.570;2022-11-20T05:55:08;32.67;;;11.63;;
13269;SDS011;6703;51.994;7.570;2022-11-20T05:57:36;30.20;;;11.70;;
13269;SDS011;6703;51.994;7.570;2022-11-20T06:00:04;28.13;;;11.43;;
13269;SDS011;6703;51.994;7.570;2022-11-20T06:02:35;28.50;;;12.07;;
13269;SDS011;6703;51.994;7.570;2022-11-20T06:05:03;29.00;;;11.50;;
13269;SDS011;6703;51.994;7.570;2022-11-20T06:07:31;36.87;;;12.63;;
13269;SDS011;6703;51.994;7.570;2022-11-20T06:09:59;50.42;;;14.63;;
13269;SDS011;6703;51.994;7.570;2022-11-20T06:12:26;63.03;;;14.95;;
13269;SDS011;6703;51.994;7.570;2022-11-20T06:14:54;56.53;;;14.43;;
13269;SDS011;6703;51.994;7.570;2022-11-20T06:17:23;65.65;;;15.20;;
13269;SDS011;6703;51.994;7.570;2022-11-20T06:19:52;68.18;;;13.70;;
13269;SDS011;6703;51.994;7.570;2022-11-20T06:22:21;54.58;;;14.25;;
13269;SDS011;6703;51.994;7.570;2022-11-20T06:24:48;58.40;;;13.07;;
13269;SDS011;6703;51.994;7.570;2022-11-20T06:27:17;48.47;;;14.43;;
13269;SDS011;6703;51.994;7.570;2022-11-20T06:29:45;35.58;;;12.93;;
13269;SDS011;6703;51.994;7.570;2022-11-20T06:32:13;40.47;;;12.40;;
13269;SDS011;6703;51.994;7.570;2022-11-20T06:34:40;43.33;;;13.40;;
13269;SDS011;6703;51.994;7.570;2022-11-20T06:37:11;38.03;;;12.75;;
13269;SDS011;6703;51.994;7.570;2022-11-20T06:39:40;47.13;;;13.73;;
13269;SDS011;6703;51.994;7.570;2022-11-20T06:42:08;42.13;;;12.68;;
13269;SDS011;6703;51.994;7.570;2022-11-20T06:44:36;40.40;;;12.25;;
13269;SDS011;6703;51.994;7.570;2022-11-20T06:47:04;38.58;;;12.15;;
13269;SDS011;6703;51.994;7.570;2022-11-20T06:49:31;57.05;;;13.02;;
13269;SDS011;6703;51.994;7.570;2022-11-20T06:52:01;51.30;;;11.70;;
13269;SDS011;6703;51.994;7.570;2022-11-20T06:54:30;46.50;;;12.03;;
13269;SDS011;6703;51.994;7.570;2022-11-20T06:56:58;42.78;;;11.18;;
13269;SDS011;6703;51.994;7.570;2022-11-20T06:59:25;42.17;;;11.25;;
13269;SDS011;6703;51.994;7.570;2022-11-20T07:01:53;45.72;;;11.10;;
13269;SDS011;6703;51.994;7.570;2022-11-20T07:04:21;43.55;;;11.75;;
13269;SDS011;6703;51.994;7.570;2022-11-20T07:06:49;41.88;;;12.10;;
13269;SDS011;6703;51.994;7.570;2022-11-20T07:09:16;42.90;;;11.63;;
13269;SDS011;6703;51.994;7.570;2022-11-20T07:11:45;56.88;;;11.90;;
13269;SDS011;6703;51.994;7.570;2022-11-20T07:14:13;57.63;;;10.35;;
13269;SDS011;6703;51.994;7.570;2022-11-20T07:16:42;35.17;;;9.70;;
13269;SDS011;6703;51.994;7.570;2022-11-20T07:19:09;36.88;;;10.43;;
13269;SDS011;6703;51.994;7.570;2022-11-20T07:21:38;46.77;;;10.87;;
13269;SDS011;6703;51.994;7.570;2022-11-20T07:24:05;45.40;;;9.38;;
13269;SDS011;6703;51.994;7.570;2022-11-20T07:26:33;32.13;;;9.10;;
13269;SDS011;6703;51.994;7.570;2022-11-20T07:29:03;35.10;;;10.27;;
13269;SDS011;6703;51.994;7.570;2022-11-20T07:31:30;31.23;;;9.50;;
13269;SDS011;6703;51.994;7.570;2022-11-20T07:33:58;29.48;;;9.18;;
13269;SDS011;6703;51.994;7.570;2022-11-20T07:36:26;43.42;;;8.77;;
13269;SDS011;6703;51.994;7.570;2022-11-20T07:38:53;29.10;;;8.98;;
13269;SDS011;6703;51.994;7.570;2022-11-20T07:41:22;36.23;;;8.50;;
13269;SDS011;6703;51.994;7.570;2022-11-20T07:43:50;43.08;;;10.40;;
13269;SDS011;6703;51.994;7.570;2022-11-20T07:46:19;36.65;;;9.73;;
13269;SDS011;6703;51.994;7.570;2022-11-20T07:48:47;45.65;;;9.80;;
13269;SDS011;6703;51.994;7.570;2022-11-20T07:51:15;41.42;;;10.02;;
13269;SDS011;6703;51.994;7.570;2022-11-20T07:53:42;36.30;;;10.88;;
13269;SDS011;6703;51.994;7.570;2022-11-20T07:56:10;46.00;;;11.67;;
13269;SDS011;6703;51.994;7.570;2022-11-20T07:58:40;41.25;;;11.07;;
13269;SDS011;6703;51.994;7.570;2022-11-20T08:01:10;39.55;;;11.57;;
13269;SDS011;6703;51.994;7.570;2022-11-20T08:03:39;44.83;;;11.07;;
13269;SDS011;6703;51.994;7.570;2022-11-20T08:06:07;37.97;;;11.70;;
13269;SDS011;6703;51.994;7.570;2022-11-20T08:08:35;37.88;;;11.60;;
13269;SDS011;6703;51.994;7.570;2022-11-20T08:11:08;37.83;;;11.27;;
13269;SDS011;6703;51.994;7.570;2022-11-20T08:13:52;47.70;;;13.45;;
13269;SDS011;6703;51.994;7.570;2022-11-20T08:16:40;37.13;;;12.25;;
13269;SDS011;6703;51.994;7.570;2022-11-20T08:19:09;38.67;;;11.93;;
13269;SDS011;6703;51.994;7.570;2022-11-20T08:21:37;43.58;;;13.43;;
13269;SDS011;6703;51.994;7.570;2022-11-20T08:24:06;42.15;;;13.23;;
13269;SDS011;6703;51.994;7.570;2022-11-20T08:26:35;43.10;;;13.00;;
13269;SDS011;6703;51.994;7.570;2022-11-20T08:29:04;50.17;;;13.53;;
13269;SDS011;6703;51.994;7.570;2022-11-20T08:31:32;39.80;;;12.70;;
13269;SDS011;6703;51.994;7.570;2022-11-20T08:34:00;48.80;;;13.48;;
13269;SDS011;6703;51.994;7.570;2022-11-20T08:36:35;44.00;;;14.00;;
13269;SDS011;6703;51.994;7.570;2022-11-20T08:39:03;49.33;;;14.93;;
13269;SDS011;6703;51.994;7.570;2022-11-20T08:41:31;54.10;;;15.27;;
13269;SDS011;6703;51.994;7.570;2022-11-20T08:44:00;46.90;;;15.35;;
13269;SDS011;6703;51.994;7.570;2022-11-20T08:46:31;51.20;;;16.20;;
13269;SDS011;6703;51.994;7.570;2022-11-20T08:49:00;54.33;;;15.40;;
13269;SDS011;6703;51.994;7.570;2022-11-20T08:51:28;61.88;;;15.50;;
13269;SDS011;6703;51.994;7.570;2022-11-20T08:53:58;54.05;;;15.43;;
13269;SDS011;6703;51.994;7.570;2022-11-20T08:56:26;65.13;;;16.50;;
13269;SDS011;6703;51.994;7.570;2022-11-20T08:58:54;62.28;;;16.25;;
13269;SDS011;6703;51.994;7.570;2022-11-20T09:01:42;56.38;;;15.40;;
13269;SDS011;6703;51.994;7.570;2022-11-20T09:04:11;55.05;;;14.15;;
13269;SDS011;6703;51.994;7.570;2022-11-20T09:06:40;60.93;;;15.33;;
13269;SDS011;6703;51.994;7.570;2022-11-20T09:09:09;68.65;;;15.50;;
13269;SDS011;6703;51.994;7.570;2022-11-20T09:11:37;63.17;;;15.32;;
13269;SDS011;6703;51.994;7.570;2022-11-20T09:14:05;63.37;;;14.67;;
13269;SDS011;6703;51.994;7.570;2022-11-20T09:16:32;74.22;;;14.70;;
13269;SDS011;6703;51.994;7.570;2022-11-20T09:19:00;76.18;;;14.60;;
13269;SDS011;6703;51.994;7.570;2022-11-20T09:21:47;63.88;;;14.82;;
13269;SDS011;6703;51.994;7.570;2022-11-20T09:24:17;52.45;;;15.45;;
13269;SDS011;6703;51.994;7.570;2022-11-20T09:26:45;54.92;;;15.48;;
13269;SDS011;6703;51.994;7.570;2022-11-20T09:29:12;53.73;;;15.73;;
13269;SDS011;6703;51.994;7.570;2022-11-20T09:31:40;52.75;;;15.98;;
13269;SDS011;6703;51.994;7.570;2022-11-20T09:34:07;52.90;;;16.10;;
13269;SDS011;6703;51.994;7.570;2022-11-20T09:36:37;59.30;;;15.98;;
13269;SDS011;6703;51.994;7.570;2022-11-20T09:39:06;52.23;;;15.87;;
13269;SDS011;6703;51.994;7.570;2022-11-20T09:44:31;51.85;;;14.95;;
13269;SDS011;6703;51.994;7.570;2022-11-20T09:47:08;54.63;;;15.85;;
13269;SDS011;6703;51.994;7.570;2022-11-20T09:49:45;59.83;;;15.57;;
13269;SDS011;6703;51.994;7.570;2022-11-20T09:52:22;52.85;;;16.02;;
13269;SDS011;6703;51.994;7.570;2022-11-20T09:54:56;54.65;;;15.80;;
13269;SDS011;6703;51.994;7.570;2022-11-20T09:57:28;50.80;;;16.33;;
13269;SDS011;6703;51.994;7.570;2022-11-20T10:00:00;51.53;;;16.77;;
13269;SDS011;6703;51.994;7.570;2022-11-20T10:02:29;54.67;;;17.17;;
13269;SDS011;6703;51.994;7.570;2022-11-20T10:04:59;49.55;;;17.40;;
13269;SDS011;6703;51.994;7.570;2022-11-20T10:07:32;62.25;;;18.70;;
13269;SDS011;6703;51.994;7.570;2022-11-20T10:10:05;53.87;;;16.97;;
13269;SDS011;6703;51.994;7.570;2022-11-20T10:12:40;50.93;;;16.70;;
13269;SDS011;6703;51.994;7.570;2022-11-20T10:15:22;47.65;;;16.92;;
13269;SDS011;6703;51.994;7.570;2022-11-20T10:20:46;53.95;;;17.48;;
13269;SDS011;6703;51.994;7.570;2022-11-20T10:23:28;61.13;;;18.20;;
13269;SDS011;6703;51.994;7.570;2022-11-20T10:26:02;52.40;;;18.52;;
13269;SDS011;6703;51.994;7.570;2022-11-20T10:28:37;55.00;;;18.05;;
13269;SDS011;6703;51.994;7.570;2022-11-20T10:31:25;47.95;;;17.10;;
13269;SDS011;6703;51.994;7.570;2022-11-20T10:33:55;51.15;;;17.15;;
13269;SDS011;6703;51.994;7.570;2022-11-20T10:36:46;47.03;;;17.25;;
13269;SDS011;6703;51.994;7.570;2022-11-20T10:39:17;48.42;;;17.60;;
13269;SDS011;6703;51.994;7.570;2022-11-20T10:41:49;48.25;;;17.35;;
13269;SDS011;6703;51.994;7.570;2022-11-20T10:44:21;48.72;;;17.08;;
13269;SDS011;6703;51.994;7.570;2022-11-20T10:47:03;48.20;;;17.92;;
13269;SDS011;6703;51.994;7.570;2022-11-20T10:49:32;43.05;;;17.20;;
13269;SDS011;6703;51.994;7.570;2022-11-20T10:52:03;45.78;;;17.48;;
13269;SDS011;6703;51.994;7.570;2022-11-20T10:54:35;43.20;;;16.52;;
13269;SDS011;6703;51.994;7.570;2022-11-20T10:57:07;49.42;;;17.52;;
13269;SDS011;6703;51.994;7.570;2022-11-20T10:59:51;47.45;;;18.00;;
13269;SDS011;6703;51.994;7.570;2022-11-20T11:02:24;47.10;;;17.23;;
13269;SDS011;6703;51.994;7.570;2022-11-20T11:04:57;45.33;;;18.33;;
13269;SDS011;6703;51.994;7.570;2022-11-20T11:07:27;45.47;;;17.60;;
13269;SDS011;6703;51.994;7.570;2022-11-20T11:09:58;44.85;;;17.70;;
13269;SDS011;6703;51.994;7.570;2022-11-20T11:12:27;45.85;;;17.83;;
13269;SDS011;6703;51.994;7.570;2022-11-20T11:14:59;41.25;;;17.45;;
13269;SDS011;6703;51.994;7.570;2022-11-20T11:17:27;45.35;;;17.05;;
13269;SDS011;6703;51.994;7.570;2022-11-20T11:19:57;41.67;;;16.70;;
13269;SDS011;6703;51.994;7.570;2022-11-20T11:22:25;38.88;;;16.02;;
13269;SDS011;6703;51.994;7.570;2022-11-20T11:24:55;38.60;;;15.60;;
13269;SDS011;6703;51.994;7.570;2022-11-20T11:27:23;34.67;;;15.88;;
13269;SDS011;6703;51.994;7.570;2022-11-20T11:30:02;31.83;;;14.23;;
13269;SDS011;6703;51.994;7.570;2022-11-20T11:32:39;29.33;;;13.55;;
13269;SDS011;6703;51.994;7.570;2022-11-20T11:35:18;28.50;;;12.65;;
13269;SDS011;6703;51.994;7.570;2022-11-20T11:37:53;28.38;;;12.43;;
13269;SDS011;6703;51.994;7.570;2022-11-20T11:40:22;28.10;;;11.87;;
13269;SDS011;6703;51.994;7.570;2022-11-20T11:42:54;24.85;;;11.52;;
13269;SDS011;6703;51.994;7.570;2022-11-20T11:45:25;26.33;;;10.73;;
13269;SDS011;6703;51.994;7.570;2022-11-20T11:47:53;21.35;;;9.48;;
13269;SDS011;6703;51.994;7.570;2022-11-20T11:50:23;21.95;;;9.77;;
13269;SDS011;6703;51.994;7.570;2022-11-20T11:52:55;18.75;;;9.38;;
13269;SDS011;6703;51.994;7.570;2022-11-20T11:55:40;22.60;;;10.18;;
13269;SDS011;6703;51.994;7.570;2022-11-20T11:58:19;19.45;;;8.82;;
13269;SDS011;6703;51.994;7.570;2022-11-20T12:00:58;18.58;;;8.65;;
13269;SDS011;6703;51.994;7.570;2022-11-20T12:03:33;16.70;;;7.43;;
13269;SDS011;6703;51.994;7.570;2022-11-20T12:06:04;16.55;;;7.45;;
13269;SDS011;6703;51.994;7.570;2022-11-20T12:08:37;16.38;;;7.38;;
13269;SDS011;6703;51.994;7.570;2022-11-20T12:11:11;16.90;;;7.40;;
13269;SDS011;6703;51.994;7.570;2022-11-20T12:13:42;14.02;;;7.10;;
13269;SDS011;6703;51.994;7.570;2022-11-20T12:16:14;13.93;;;6.77;;
13269;SDS011;6703;51.994;7.570;2022-11-20T12:18:43;16.85;;;7.00;;
13269;SDS011;6703;51.994;7.570;2022-11-20T12:21:17;14.27;;;7.00;;
13269;SDS011;6703;51.994;7.570;2022-11-20T12:23:53;14.55;;;6.75;;
13269;SDS011;6703;51.994;7.570;2022-11-20T12:26:31;17.17;;;7.55;;
13269;SDS011;6703;51.994;7.570;2022-11-20T12:29:07;15.02;;;6.78;;
13269;SDS011;6703;51.994;7.570;2022-11-20T12:31:46;14.80;;;6.53;;
13269;SDS011;6703;51.994;7.570;2022-11-20T12:34:23;14.57;;;7.22;;
13269;SDS011;6703;51.994;7.570;2022-11-20T12:37:00;15.20;;;7.00;;
13269;SDS011;6703;51.994;7.570;2022-11-20T12:39:34;17.80;;;8.03;;
13269;SDS011;6703;51.994;7.570;2022-11-20T12:42:15;15.25;;;7.45;;
13269;SDS011;6703;51.994;7.570;2022-11-20T12:51:24;18.13;;;7.75;;
13269;SDS011;6703;51.994;7.570;2022-11-20T12:54:03;18.95;;;8.35;;
13269;SDS011;6703;51.994;7.570;2022-11-20T12:56:38;20.85;;;8.15;;
13269;SDS011;6703;51.994;7.570;2022-11-20T12:59:16;21.60;;;9.25;;
13269;SDS011;6703;51.994;7.570;2022-11-20T13:01:52;21.35;;;9.43;;
13269;SDS011;6703;51.994;7.570;2022-11-20T13:04:31;24.05;;;10.02;;
13269;SDS011;6703;51.994;7.570;2022-11-20T13:07:07;21.42;;;9.77;;
13269;SDS011;6703;51.994;7.570;2022-11-20T13:09:39;23.30;;;9.80;;
13269;SDS011;6703;51.994;7.570;2022-11-20T13:12:09;23.50;;;9.95;;
13269;SDS011;6703;51.994;7.570;2022-11-20T13:14:42;22.65;;;9.75;;
13269;SDS011;6703;51.994;7.570;2022-11-20T13:17:13;23.00;;;10.20;;
13269;SDS011;6703;51.994;7.570;2022-11-20T13:19:48;25.50;;;10.37;;
13269;SDS011;6703;51.994;7.570;2022-11-20T13:22:23;25.80;;;10.73;;
13269;SDS011;6703;51.994;7.570;2022-11-20T13:24:52;23.92;;;10.93;;
13269;SDS011;6703;51.994;7.570;2022-11-20T13:27:20;22.60;;;10.73;;
13269;SDS011;6703;51.994;7.570;2022-11-20T13:29:59;22.93;;;10.33;;
13269;SDS011;6703;51.994;7.570;2022-11-20T13:32:30;28.20;;;11.00;;
13269;SDS011;6703;51.994;7.570;2022-11-20T13:35:01;25.13;;;10.65;;
13269;SDS011;6703;51.994;7.570;2022-11-20T13:37:31;29.88;;;11.57;;
13269;SDS011;6703;51.994;7.570;2022-11-20T13:40:11;28.48;;;12.35;;
13269;SDS011;6703;51.994;7.570;2022-11-20T13:42:43;27.52;;;12.07;;
13269;SDS011;6703;51.994;7.570;2022-11-20T13:45:20;26.48;;;11.98;;
13269;SDS011;6703;51.994;7.570;2022-11-20T13:47:50;27.50;;;12.50;;
13269;SDS011;6703;51.994;7.570;2022-11-20T13:50:21;32.55;;;12.45;;
13269;SDS011;6703;51.994;7.570;2022-11-20T13:52:55;31.10;;;13.75;;
13269;SDS011;6703;51.994;7.570;2022-11-20T13:55:28;32.45;;;13.73;;
13269;SDS011;6703;51.994;7.570;2022-11-20T13:58:04;35.70;;;14.90;;
13269;SDS011;6703;51.994;7.570;2022-11-20T14:00:44;46.72;;;16.95;;
13269;SDS011;6703;51.994;7.570;2022-11-20T14:03:16;42.08;;;17.35;;
13269;SDS011;6703;51.994;7.570;2022-11-20T14:06:11;45.95;;;17.60;;
13269;SDS011;6703;51.994;7.570;2022-11-20T14:08:41;46.58;;;17.63;;
13269;SDS011;6703;51.994;7.570;2022-11-20T14:11:13;46.30;;;17.83;;
13269;SDS011;6703;51.994;7.570;2022-11-20T14:13:56;53.55;;;21.13;;
13269;SDS011;6703;51.994;7.570;2022-11-20T14:16:25;53.03;;;20.48;;
13269;SDS011;6703;51.994;7.570;2022-11-20T14:18:55;57.78;;;21.90;;
13269;SDS011;6703;51.994;7.570;2022-11-20T14:21:25;54.20;;;21.30;;
13269;SDS011;6703;51.994;7.570;2022-11-20T14:24:02;56.58;;;21.75;;
13269;SDS011;6703;51.994;7.570;2022-11-20T14:26:33;54.38;;;21.65;;
13269;SDS011;6703;51.994;7.570;2022-11-20T14:29:01;51.72;;;20.63;;
13269;SDS011;6703;51.994;7.570;2022-11-20T14:31:29;47.70;;;19.00;;
13269;SDS011;6703;51.994;7.570;2022-11-20T14:33:57;48.22;;;18.83;;
13269;SDS011;6703;51.994;7.570;2022-11-20T14:36:26;51.97;;;19.23;;
13269;SDS011;6703;51.994;7.570;2022-11-20T14:38:54;48.25;;;19.45;;
13269;SDS011;6703;51.994;7.570;2022-11-20T14:41:22;42.03;;;18.33;;
13269;SDS011;6703;51.994;7.570;2022-11-20T14:43:53;43.58;;;18.77;;
13269;SDS011;6703;51.994;7.570;2022-11-20T14:46:21;47.47;;;18.30;;
13269;SDS011;6703;51.994;7.570;2022-11-20T14:48:50;45.03;;;18.10;;
13269;SDS011;6703;51.994;7.570;2022-11-20T14:51:28;40.78;;;17.48;;
13269;SDS011;6703;51.994;7.570;2022-11-20T14:54:07;41.58;;;16.45;;
13269;SDS011;6703;51.994;7.570;2022-11-20T14:56:36;41.93;;;17.20;;
13269;SDS011;6703;51.994;7.570;2022-11-20T14:59:04;43.28;;;17.48;;
13269;SDS011;6703;51.994;7.570;2022-11-20T15:01:32;37.90;;;16.10;;
13269;SDS011;6703;51.994;7.570;2022-11-20T15:04:01;41.03;;;17.88;;
13269;SDS011;6703;51.994;7.570;2022-11-20T15:06:34;41.20;;;17.27;;
13269;SDS011;6703;51.994;7.570;2022-11-20T15:09:03;38.87;;;16.60;;